Time;durP1;ratioP1;P1;durP2;ratioP2;P2;SDS_P1;SDS_P2;PMS_P1;PMS_P2;Temp;Humidity;BMP_temperature;BMP_pressure;BME280_temperature;BME280_humidity;BME280_pressure;Samples;Min_cycle;Max_cycle;Signal;HPM_P1;HPM_P2
2022/10/02 00:02:15;;;;;;;17.27;6.28;;;15.10;82.70;;;;;;5113192;28;20088;-71
2022/10/02 00:04:48;;;;;;;17.58;8.90;;;15.20;82.70;;;;;;5113208;28;20046;-71
2022/10/02 00:07:16;;;;;;;15.60;9.35;;;15.20;82.90;;;;;;5113269;28;20035;-71
2022/10/02 00:09:51;;;;;;;19.02;10.38;;;15.20;83.10;;;;;;5113169;28;20021;-70
2022/10/02 00:12:20;;;;;;;20.08;10.25;;;15.20;83.30;;;;;;5113076;28;20038;-71
2022/10/02 00:14:49;;;;;;;20.05;10.00;;;15.10;83.10;;;;;;5113010;28;20020;-71
2022/10/02 00:17:24;;;;;;;18.60;9.57;;;15.10;83.00;;;;;;5113000;28;20020;-71
2022/10/02 00:19:54;;;;;;;21.63;10.50;;;15.10;83.10;;;;;;5113030;28;20020;-71
2022/10/02 00:22:28;;;;;;;20.55;10.88;;;15.10;83.20;;;;;;5112949;28;20032;-71
2022/10/02 00:25:01;;;;;;;25.88;10.73;;;15.10;83.20;;;;;;5112987;28;20032;-70
2022/10/02 00:27:52;;;;;;;16.92;10.77;;;15.20;83.40;;;;;;5112916;28;20027;-71
2022/10/02 00:30:17;;;;;;;14.77;10.98;;;15.20;83.60;;;;;;5112866;28;20016;-70
2022/10/02 00:33:02;;;;;;;19.45;11.50;;;15.20;83.60;;;;;;5115997;28;20108;-70
2022/10/02 00:35:46;;;;;;;20.02;10.50;;;15.20;83.70;;;;;;5116501;28;20032;-71
2022/10/02 00:38:22;;;;;;;20.63;11.25;;;15.20;83.80;;;;;;5116554;28;20032;-70
2022/10/02 00:41:00;;;;;;;19.08;11.23;;;15.20;83.50;;;;;;5116362;28;20020;-71
2022/10/02 00:43:37;;;;;;;27.17;11.93;;;15.20;83.60;;;;;;5116384;28;20028;-70
2022/10/02 00:46:18;;;;;;;25.63;11.18;;;15.20;83.50;;;;;;5116181;28;20048;-71
2022/10/02 00:49:22;;;;;;;19.33;10.55;;;15.20;83.20;;;;;;5116245;28;20028;-70
2022/10/02 00:52:01;;;;;;;19.20;9.35;;;15.20;84.00;;;;;;5116093;28;20045;-70
2022/10/02 00:54:30;;;;;;;18.40;9.80;;;15.10;83.30;;;;;;5116270;28;20024;-70
2022/10/02 00:57:06;;;;;;;21.55;10.23;;;15.10;83.00;;;;;;5116019;28;20059;-70
2022/10/02 00:59:38;;;;;;;20.02;9.35;;;15.10;83.00;;;;;;5116135;28;20040;-70
2022/10/02 01:02:32;;;;;;;17.75;8.85;;;15.00;83.00;;;;;;5115968;28;20031;-70
2022/10/02 01:05:01;;;;;;;17.92;8.43;;;15.00;83.00;;;;;;5115646;28;20478;-70
2022/10/02 01:07:27;;;;;;;17.63;7.82;;;15.00;83.30;;;;;;5115862;28;20020;-71
2022/10/02 01:09:53;;;;;;;15.10;6.85;;;14.90;84.00;;;;;;5115773;28;20088;-71
2022/10/02 01:12:19;;;;;;;14.75;6.25;;;14.90;84.00;;;;;;5115736;28;20031;-71
2022/10/02 01:14:44;;;;;;;11.18;5.72;;;14.80;84.20;;;;;;5115690;28;20024;-70
2022/10/02 01:17:33;;;;;;;13.90;4.75;;;14.80;84.10;;;;;;5115643;28;20406;-70
2022/10/02 01:20:03;;;;;;;15.65;5.55;;;14.80;84.20;;;;;;5115604;28;20070;-70
2022/10/02 01:22:36;;;;;;;13.80;5.25;;;14.80;84.10;;;;;;5115581;28;20042;-70
2022/10/02 01:25:04;;;;;;;17.42;4.88;;;14.80;84.40;;;;;;5097660;28;20038;-71
2022/10/02 01:27:30;;;;;;;14.13;4.82;;;14.80;84.40;;;;;;5115455;28;20013;-70
2022/10/02 01:30:01;;;;;;;10.48;4.90;;;14.70;84.40;;;;;;5115459;28;20016;-70
2022/10/02 01:32:30;;;;;;;10.80;4.32;;;14.80;84.50;;;;;;5115374;28;20028;-70
2022/10/02 01:34:56;;;;;;;15.73;4.50;;;14.70;84.50;;;;;;5115405;28;20031;-71
2022/10/02 01:37:27;;;;;;;11.48;3.97;;;14.70;84.60;;;;;;5115237;28;20031;-71
2022/10/02 01:39:55;;;;;;;14.75;4.25;;;14.60;84.70;;;;;;5097297;28;20028;-71
2022/10/02 01:42:20;;;;;;;19.08;4.40;;;14.70;84.80;;;;;;5114867;28;20042;-71
2022/10/02 01:44:47;;;;;;;10.43;3.78;;;14.60;84.80;;;;;;5114985;28;20028;-71
2022/10/02 01:47:24;;;;;;;12.93;3.97;;;14.60;84.80;;;;;;5114855;28;20044;-71
2022/10/02 01:50:17;;;;;;;17.48;3.67;;;14.60;84.90;;;;;;5115056;28;20020;-71
2022/10/02 01:53:02;;;;;;;12.23;3.90;;;14.60;85.10;;;;;;5115119;28;20024;-71
2022/10/02 01:56:06;;;;;;;12.82;2.92;;;14.60;85.60;;;;;;5114918;28;20017;-71
2022/10/02 01:58:45;;;;;;;12.90;3.58;;;14.50;85.60;;;;;;5114821;28;20020;-71
2022/10/02 02:01:23;;;;;;;14.60;3.33;;;14.50;86.30;;;;;;5114815;28;20049;-71
2022/10/02 02:04:18;;;;;;;17.75;3.05;;;14.40;87.30;;;;;;5114635;28;20024;-71
2022/10/02 02:06:58;;;;;;;12.07;3.10;;;14.40;87.70;;;;;;5114828;28;20020;-71
2022/10/02 02:09:45;;;;;;;12.38;2.75;;;14.40;88.10;;;;;;5114668;28;20024;-71
2022/10/02 02:12:39;;;;;;;14.43;2.92;;;14.40;87.70;;;;;;5114681;28;20012;-70
2022/10/02 02:15:13;;;;;;;10.18;2.92;;;14.50;88.00;;;;;;5114544;28;20028;-71
2022/10/02 02:17:49;;;;;;;21.38;3.35;;;14.50;87.50;;;;;;5114513;28;20024;-71
2022/10/02 02:20:23;;;;;;;17.75;3.22;;;14.50;87.80;;;;;;5114591;28;20084;-71
2022/10/02 02:22:51;;;;;;;10.95;2.83;;;14.60;87.70;;;;;;5114536;28;20046;-71
2022/10/02 02:25:25;;;;;;;19.38;2.70;;;14.60;87.90;;;;;;5114262;28;20028;-71
2022/10/02 02:28:12;;;;;;;15.05;3.08;;;14.60;88.10;;;;;;5114318;28;20037;-71
2022/10/02 02:30:41;;;;;;;18.15;3.22;;;14.60;88.40;;;;;;5114205;28;20042;-71
2022/10/02 02:33:16;;;;;;;14.65;2.65;;;14.70;88.30;;;;;;5114201;28;20020;-70
2022/10/02 02:35:46;;;;;;;12.35;2.42;;;14.60;88.80;;;;;;5114168;28;20024;-71
2022/10/02 02:38:22;;;;;;;14.40;2.75;;;14.70;88.80;;;;;;5114142;28;20054;-71
2022/10/02 02:40:49;;;;;;;21.25;2.67;;;14.70;88.80;;;;;;5114131;28;20020;-71
2022/10/02 02:43:33;;;;;;;14.30;2.60;;;14.70;89.20;;;;;;5114149;28;20020;-70
2022/10/02 02:46:06;;;;;;;13.95;2.60;;;14.70;89.60;;;;;;5113837;28;20043;-71
2022/10/02 02:48:38;;;;;;;23.50;2.60;;;14.70;89.70;;;;;;5113980;28;20020;-70
2022/10/02 02:51:14;;;;;;;16.05;2.88;;;14.70;90.00;;;;;;5113965;28;20016;-71
2022/10/02 02:53:55;;;;;;;14.95;2.60;;;14.80;89.60;;;;;;5113289;28;20016;-71
2022/10/02 02:56:21;;;;;;;19.85;2.80;;;14.80;90.00;;;;;;5113894;28;20020;-71
2022/10/02 02:59:09;;;;;;;29.02;4.20;;;14.80;90.10;;;;;;5113803;28;20055;-71
2022/10/02 03:01:35;;;;;;;18.33;3.10;;;14.80;90.10;;;;;;5113810;28;20020;-71
2022/10/02 03:04:01;;;;;;;17.23;2.88;;;14.80;90.40;;;;;;5113667;28;20387;-71
2022/10/02 03:06:40;;;;;;;14.45;2.90;;;14.70;90.40;;;;;;5113656;28;20066;-71
2022/10/02 03:09:12;;;;;;;17.25;2.58;;;14.70;90.40;;;;;;5113678;28;20024;-70
2022/10/02 03:12:23;;;;;;;15.13;2.67;;;14.80;90.30;;;;;;5113711;28;20157;-70
2022/10/02 03:15:17;;;;;;;17.95;3.50;;;14.80;90.40;;;;;;5113773;28;20048;-71
2022/10/02 03:17:58;;;;;;;18.67;3.28;;;14.80;90.30;;;;;;5113601;28;20047;-71
2022/10/02 03:20:41;;;;;;;17.60;2.92;;;14.80;90.10;;;;;;5113559;28;20024;-71
2022/10/02 03:23:13;;;;;;;10.73;2.28;;;14.80;90.20;;;;;;5113562;28;20032;-71
2022/10/02 03:25:38;;;;;;;18.15;3.47;;;14.80;90.20;;;;;;5113501;28;20059;-71
2022/10/02 03:28:26;;;;;;;15.32;2.65;;;14.80;90.10;;;;;;5113588;28;20028;-71
2022/10/02 03:30:54;;;;;;;11.48;2.70;;;14.80;90.00;;;;;;5113415;28;20059;-71
2022/10/02 03:33:22;;;;;;;15.52;3.13;;;14.80;89.90;;;;;;5113424;28;20016;-71
2022/10/02 03:35:49;;;;;;;15.18;2.67;;;14.80;90.00;;;;;;5113413;28;20034;-71
2022/10/02 03:38:17;;;;;;;16.98;2.85;;;14.80;89.80;;;;;;5113365;28;20046;-71
2022/10/02 03:40:42;;;;;;;15.23;2.38;;;14.80;89.70;;;;;;5113336;28;20028;-71
2022/10/02 03:43:15;;;;;;;10.93;2.28;;;14.80;89.60;;;;;;5113336;28;20068;-70
2022/10/02 03:45:41;;;;;;;23.23;3.80;;;14.80;89.60;;;;;;5113198;28;20042;-71
2022/10/02 03:48:06;;;;;;;15.98;2.47;;;14.80;89.60;;;;;;5113330;28;20073;-71
2022/10/02 03:50:32;;;;;;;10.80;2.55;;;14.90;89.30;;;;;;5113243;28;20032;-71
2022/10/02 03:52:57;;;;;;;15.63;2.75;;;14.90;89.30;;;;;;5113359;28;20050;-71
2022/10/02 03:55:34;;;;;;;15.55;2.90;;;14.90;89.30;;;;;;5113217;28;20036;-71
2022/10/02 03:58:17;;;;;;;13.38;2.72;;;14.90;89.30;;;;;;5113271;28;20087;-71
2022/10/02 04:01:14;;;;;;;12.73;2.60;;;14.90;89.20;;;;;;5113193;28;20043;-71
2022/10/02 04:03:50;;;;;;;11.85;2.65;;;14.80;89.10;;;;;;5086890;28;20062;-71
2022/10/02 04:06:57;;;;;;;6.97;2.13;;;14.80;90.10;;;;;;5115801;28;20020;-71
2022/10/02 04:09:47;;;;;;;11.30;2.22;;;14.70;89.60;;;;;;5108716;28;20043;-71
2022/10/02 04:12:19;;;;;;;8.15;2.17;;;14.70;89.80;;;;;;5116942;28;20040;-71
2022/10/02 04:14:49;;;;;;;12.95;2.40;;;14.70;89.80;;;;;;5116906;28;20044;-71
2022/10/02 04:17:20;;;;;;;11.60;2.20;;;14.70;89.70;;;;;;5116876;28;20034;-71
2022/10/02 04:19:55;;;;;;;9.27;2.53;;;14.70;89.70;;;;;;5116773;28;20040;-71
2022/10/02 04:22:30;;;;;;;9.75;2.53;;;14.70;90.20;;;;;;5116793;28;20088;-71
2022/10/02 04:24:59;;;;;;;7.43;2.20;;;14.80;89.40;;;;;;5116752;28;20039;-71
2022/10/02 04:27:56;;;;;;;8.45;2.38;;;14.70;89.30;;;;;;5116652;28;20028;-71
2022/10/02 04:30:22;;;;;;;8.23;2.70;;;14.80;89.60;;;;;;5110606;28;20475;-71
2022/10/02 04:32:48;;;;;;;7.13;2.22;;;14.70;89.50;;;;;;5116517;28;20035;-71
2022/10/02 04:35:18;;;;;;;11.57;2.63;;;14.70;89.60;;;;;;5116473;28;20035;-70
2022/10/02 04:37:58;;;;;;;14.07;2.45;;;14.70;89.50;;;;;;5116630;28;20081;-71
2022/10/02 04:41:10;;;;;;;11.43;2.53;;;14.70;89.30;;;;;;5116400;28;20016;-71
2022/10/02 04:44:04;;;;;;;7.95;2.33;;;14.80;89.10;;;;;;5061324;28;20097;-71
2022/10/02 04:46:48;;;;;;;10.77;2.78;;;14.70;88.80;;;;;;5110422;28;20039;-71
2022/10/02 04:49:39;;;;;;;11.40;2.45;;;14.70;88.80;;;;;;5116239;28;20050;-71
2022/10/02 04:52:32;;;;;;;6.53;2.00;;;14.70;88.60;;;;;;5109088;28;20059;-71
2022/10/02 04:55:20;;;;;;;9.48;2.60;;;14.70;89.40;;;;;;5116181;28;20024;-71
2022/10/02 04:58:15;;;;;;;12.77;2.38;;;14.60;88.60;;;;;;5116213;28;20051;-71
2022/10/02 05:01:27;;;;;;;8.38;2.42;;;14.60;89.00;;;;;;5116015;28;20035;-71
2022/10/02 05:04:27;;;;;;;6.32;2.10;;;14.60;89.00;;;;;;5100968;28;20036;-71
2022/10/02 05:07:01;;;;;;;11.93;2.70;;;14.60;89.00;;;;;;5115910;28;20024;-71
2022/10/02 05:09:43;;;;;;;5.13;2.00;;;14.50;88.90;;;;;;5115842;28;20441;-71
2022/10/02 05:12:26;;;;;;;8.55;2.40;;;14.60;89.00;;;;;;5115981;28;20087;-71
2022/10/02 05:15:07;;;;;;;10.32;1.95;;;14.50;89.10;;;;;;5115748;28;20028;-71
2022/10/02 05:18:02;;;;;;;6.03;2.20;;;14.50;89.10;;;;;;5115044;28;20043;-71
2022/10/02 05:20:57;;;;;;;8.82;2.60;;;14.50;89.00;;;;;;5115634;28;20056;-71
2022/10/02 05:23:30;;;;;;;7.03;2.65;;;14.50;89.20;;;;;;5115216;28;20048;-71
2022/10/02 05:26:11;;;;;;;12.43;3.05;;;14.40;89.10;;;;;;5115550;28;20031;-71
2022/10/02 05:29:15;;;;;;;7.38;2.35;;;14.40;89.00;;;;;;5115404;28;20035;-71
2022/10/02 05:31:58;;;;;;;8.68;2.80;;;14.40;89.00;;;;;;5115450;28;20036;-71
2022/10/02 05:34:51;;;;;;;8.18;2.92;;;14.40;88.90;;;;;;5115491;28;20087;-70
2022/10/02 05:37:39;;;;;;;7.47;2.60;;;14.40;89.00;;;;;;5115304;28;20025;-71
2022/10/02 05:40:16;;;;;;;7.68;2.90;;;14.40;89.00;;;;;;5115251;28;20051;-71
2022/10/02 05:42:47;;;;;;;5.88;2.83;;;14.40;89.30;;;;;;5115170;28;20161;-71
2022/10/02 05:45:27;;;;;;;9.13;2.95;;;14.40;89.40;;;;;;5115009;28;20028;-71
2022/10/02 05:48:01;;;;;;;9.40;3.17;;;14.40;89.50;;;;;;5114943;28;20048;-71
2022/10/02 05:50:32;;;;;;;9.38;3.30;;;14.40;89.60;;;;;;5115059;28;20012;-71
2022/10/02 05:53:10;;;;;;;11.85;3.60;;;14.40;89.40;;;;;;5114997;28;20020;-71
2022/10/02 05:55:35;;;;;;;11.95;3.60;;;14.50;89.30;;;;;;5114943;28;20020;-72
2022/10/02 05:58:11;;;;;;;12.18;3.58;;;14.50;89.30;;;;;;5114867;28;20035;-71
2022/10/02 06:00:59;;;;;;;9.05;3.38;;;14.50;89.40;;;;;;5114868;28;20045;-71
2022/10/02 06:03:49;;;;;;;13.52;4.10;;;14.50;89.30;;;;;;5114787;28;20055;-71
2022/10/02 06:06:21;;;;;;;11.38;3.58;;;14.50;89.50;;;;;;5105660;28;20108;-71
2022/10/02 06:09:09;;;;;;;13.65;4.03;;;14.50;89.40;;;;;;5114662;28;20032;-71
2022/10/02 06:11:38;;;;;;;9.15;4.07;;;14.50;89.40;;;;;;5106295;28;20036;-71
2022/10/02 06:14:44;;;;;;;9.82;4.28;;;14.50;89.50;;;;;;5114624;28;20031;-71
2022/10/02 06:17:12;;;;;;;12.50;4.00;;;14.50;89.70;;;;;;5080348;28;20073;-72
2022/10/02 06:19:53;;;;;;;12.95;4.43;;;14.50;89.70;;;;;;5114454;28;20023;-72
2022/10/02 06:22:23;;;;;;;12.27;4.85;;;14.60;89.80;;;;;;5114431;28;20028;-72
2022/10/02 06:25:12;;;;;;;15.27;4.90;;;14.60;89.70;;;;;;5114309;28;20028;-72
2022/10/02 06:28:01;;;;;;;13.27;5.30;;;14.60;89.80;;;;;;5114362;28;20016;-72
2022/10/02 06:30:30;;;;;;;12.80;5.32;;;14.60;90.10;;;;;;5113584;28;20028;-72
2022/10/02 06:33:04;;;;;;;11.85;5.05;;;14.60;89.90;;;;;;5114223;28;20036;-72
2022/10/02 06:35:36;;;;;;;13.68;5.95;;;14.60;89.90;;;;;;5114205;28;20082;-72
2022/10/02 06:38:15;;;;;;;19.48;6.18;;;14.60;90.10;;;;;;5114198;28;20020;-72
2022/10/02 06:41:19;;;;;;;14.63;5.75;;;14.60;90.00;;;;;;5114105;28;20020;-73
2022/10/02 06:44:06;;;;;;;15.00;5.95;;;14.60;90.10;;;;;;5113988;28;20028;-73
2022/10/02 06:46:48;;;;;;;16.25;6.05;;;14.60;90.10;;;;;;5113924;28;20556;-72
2022/10/02 06:49:45;;;;;;;15.38;6.70;;;14.60;90.20;;;;;;5114150;28;20020;-72
2022/10/02 06:52:27;;;;;;;19.27;6.85;;;14.70;90.40;;;;;;5087046;28;20036;-72
2022/10/02 06:55:30;;;;;;;18.10;7.45;;;14.70;90.40;;;;;;5113906;28;20028;-72
2022/10/02 06:58:08;;;;;;;;;;;14.70;90.40;;;;;;5110929;28;20039;-72
2022/10/02 07:00:44;;;;;;;18.17;6.20;;;14.70;90.60;;;;;;5113755;28;19904;-72
2022/10/02 07:03:29;;;;;;;24.70;7.53;;;14.70;90.50;;;;;;5113826;28;20084;-72
2022/10/02 07:06:44;;;;;;;22.05;7.15;;;14.70;90.70;;;;;;5113667;28;20031;-72
2022/10/02 07:09:22;;;;;;;19.75;7.00;;;14.80;91.00;;;;;;5051533;28;20088;-72
2022/10/02 07:11:54;;;;;;;18.08;6.78;;;14.80;91.10;;;;;;5112084;28;20040;-72
2022/10/02 07:14:29;;;;;;;16.95;7.53;;;14.80;91.30;;;;;;5113797;28;20032;-72
2022/10/02 07:17:32;;;;;;;26.85;7.13;;;14.80;91.40;;;;;;5113564;28;20048;-72
2022/10/02 07:20:22;;;;;;;;;;;14.90;91.50;;;;;;5114137;28;20039;-72
2022/10/02 07:23:08;;;;;;;19.58;5.90;;;14.90;91.60;;;;;;5113728;28;19911;-72
2022/10/02 07:25:57;;;;;;;17.40;6.20;;;14.90;91.50;;;;;;5113444;28;20032;-72
2022/10/02 07:28:38;;;;;;;16.15;6.07;;;14.90;91.60;;;;;;5113424;28;20020;-72
2022/10/02 07:31:39;;;;;;;19.58;5.90;;;14.90;91.80;;;;;;5113564;28;20024;-72
2022/10/02 07:34:20;;;;;;;22.38;5.97;;;15.00;91.80;;;;;;5113436;28;20024;-72
2022/10/02 07:37:35;;;;;;;20.27;6.05;;;15.00;91.70;;;;;;5113393;28;20028;-72
2022/10/02 07:40:35;;;;;;;18.50;5.13;;;15.10;91.80;;;;;;5113998;28;20016;-72
2022/10/02 07:43:10;;;;;;;16.70;4.95;;;15.10;91.70;;;;;;5117547;28;20043;-72
2022/10/02 07:45:43;;;;;;;22.92;5.65;;;15.10;91.60;;;;;;5117393;28;20056;-72
2022/10/02 07:48:11;;;;;;;16.45;5.03;;;15.20;91.70;;;;;;5117557;28;20024;-72
2022/10/02 07:50:55;;;;;;;18.13;4.95;;;15.20;91.80;;;;;;5117364;28;20016;-72
2022/10/02 07:53:53;;;;;;;17.20;4.63;;;15.30;91.80;;;;;;5117305;28;20032;-72
2022/10/02 07:56:22;;;;;;;15.65;4.50;;;15.30;91.80;;;;;;5105480;28;20032;-72
2022/10/02 07:58:54;;;;;;;17.67;5.75;;;15.40;91.60;;;;;;5117203;28;20028;-72
2022/10/02 08:01:27;;;;;;;21.25;5.43;;;15.50;91.60;;;;;;5117251;28;20170;-72
2022/10/02 08:04:01;;;;;;;;;;;15.50;91.40;;;;;;5117441;28;20032;-72
2022/10/02 08:06:27;;;;;;;21.05;5.45;;;15.60;91.40;;;;;;5117036;28;19990;-72
2022/10/02 08:08:59;;;;;;;16.17;6.13;;;15.60;91.40;;;;;;5117036;28;20039;-72
2022/10/02 08:11:25;;;;;;;15.63;5.43;;;15.60;91.30;;;;;;5117021;28;20111;-72
2022/10/02 08:14:24;;;;;;;17.13;5.63;;;15.60;91.30;;;;;;5116904;28;20016;-72
2022/10/02 08:16:52;;;;;;;16.65;5.88;;;15.70;91.10;;;;;;5116913;28;20039;-72
2022/10/02 08:19:33;;;;;;;19.35;5.78;;;15.70;91.00;;;;;;5116847;28;20112;-72
2022/10/02 08:22:07;;;;;;;16.30;5.22;;;15.80;90.90;;;;;;5098859;28;20024;-72
2022/10/02 08:24:44;;;;;;;18.80;5.88;;;15.80;90.80;;;;;;5116665;28;20047;-72
2022/10/02 08:27:15;;;;;;;12.48;5.30;;;15.80;90.70;;;;;;5116706;28;20351;-72
2022/10/02 08:30:05;;;;;;;15.10;5.03;;;15.90;90.60;;;;;;5116594;28;20019;-72
2022/10/02 08:32:35;;;;;;;15.13;4.35;;;16.00;90.40;;;;;;5116596;28;20016;-72
2022/10/02 08:35:00;;;;;;;13.18;5.70;;;16.00;90.30;;;;;;5116552;28;20027;-72
2022/10/02 08:37:47;;;;;;;14.25;4.85;;;16.00;90.20;;;;;;5116437;28;20028;-72
2022/10/02 08:40:47;;;;;;;10.95;4.70;;;16.10;90.10;;;;;;5116563;28;20028;-72
2022/10/02 08:43:36;;;;;;;12.35;4.43;;;16.10;89.70;;;;;;5116333;28;20035;-72
2022/10/02 08:46:07;;;;;;;13.38;4.68;;;16.10;89.50;;;;;;5116107;28;20070;-71
2022/10/02 08:49:03;;;;;;;11.57;4.38;;;16.10;89.70;;;;;;5116104;28;20024;-72
2022/10/02 08:52:05;;;;;;;11.23;4.05;;;16.20;89.30;;;;;;5115435;28;20467;-73
2022/10/02 08:54:48;;;;;;;13.23;4.47;;;16.20;89.20;;;;;;5116261;28;20020;-72
2022/10/02 08:57:20;;;;;;;12.77;4.35;;;16.20;88.70;;;;;;5116265;28;20020;-72
2022/10/02 09:00:05;;;;;;;12.45;3.20;;;16.30;88.20;;;;;;5116209;28;20027;-72
2022/10/02 09:02:56;;;;;;;11.10;3.20;;;16.30;87.50;;;;;;5116172;28;20054;-72
2022/10/02 09:05:36;;;;;;;11.57;3.45;;;16.40;87.60;;;;;;5115866;28;20020;-72
2022/10/02 09:08:41;;;;;;;12.35;3.75;;;16.40;87.40;;;;;;5115940;28;20020;-72
2022/10/02 09:11:37;;;;;;;10.85;3.25;;;16.40;86.80;;;;;;5084355;28;20061;-72
2022/10/02 09:14:48;;;;;;;11.80;3.65;;;16.40;86.70;;;;;;5115889;28;20087;-72
2022/10/02 09:17:42;;;;;;;12.25;3.35;;;16.40;86.70;;;;;;5115898;28;20092;-72
2022/10/02 09:20:44;;;;;;;15.23;3.08;;;16.40;86.60;;;;;;5115693;28;20024;-73
2022/10/02 09:23:48;;;;;;;9.35;2.92;;;16.50;86.00;;;;;;5115629;28;20030;-72
2022/10/02 09:26:13;;;;;;;;;;;16.50;86.00;;;;;;5115979;28;20070;-72
2022/10/02 09:29:18;;;;;;;14.70;2.55;;;16.60;86.20;;;;;;5115360;28;19908;-72
2022/10/02 09:32:25;;;;;;;10.00;2.50;;;16.70;86.10;;;;;;5115399;28;20028;-72
2022/10/02 09:35:13;;;;;;;7.68;2.38;;;16.90;85.70;;;;;;5115561;28;20035;-72
2022/10/02 09:37:38;;;;;;;6.78;2.00;;;16.90;84.40;;;;;;5115359;28;20012;-72
2022/10/02 09:40:31;;;;;;;13.82;3.05;;;17.00;84.30;;;;;;5115242;28;20024;-72
2022/10/02 09:43:06;;;;;;;9.88;2.25;;;17.00;84.10;;;;;;5115205;28;20024;-72
2022/10/02 09:45:56;;;;;;;9.07;2.13;;;17.10;83.00;;;;;;5114931;28;20028;-72
2022/10/02 09:48:54;;;;;;;8.60;1.77;;;17.10;82.80;;;;;;5115275;28;20054;-72
2022/10/02 09:51:51;;;;;;;14.48;2.75;;;17.10;82.90;;;;;;5091347;28;20028;-72
2022/10/02 09:54:42;;;;;;;10.88;1.88;;;17.10;81.80;;;;;;5114939;28;20119;-72
2022/10/02 09:57:11;;;;;;;11.07;1.70;;;17.20;81.80;;;;;;5114927;28;20028;-72
2022/10/02 09:59:52;;;;;;;7.28;1.95;;;17.20;81.80;;;;;;5114851;28;20055;-72
2022/10/02 10:02:24;;;;;;;9.10;1.63;;;17.30;81.80;;;;;;5115032;28;20020;-71
2022/10/02 10:05:30;;;;;;;11.40;2.03;;;17.30;81.30;;;;;;5114546;28;20046;-72
2022/10/02 10:08:18;;;;;;;9.23;1.95;;;17.40;81.30;;;;;;5114769;28;20012;-72
2022/10/02 10:11:00;;;;;;;11.48;2.40;;;17.50;80.50;;;;;;5114661;28;20070;-72
2022/10/02 10:14:23;;;;;;;7.13;1.52;;;17.50;79.90;;;;;;5114584;28;20025;-72
2022/10/02 10:17:07;;;;;;;6.97;1.80;;;17.60;79.30;;;;;;5052396;28;20025;-72
2022/10/02 10:19:58;;;;;;;6.57;1.70;;;17.70;80.20;;;;;;5052365;28;20051;-72
2022/10/02 10:22:45;;;;;;;11.65;2.28;;;17.90;79.40;;;;;;5107953;28;20096;-71
2022/10/02 10:25:31;;;;;;;10.75;1.77;;;17.90;77.90;;;;;;5114320;28;20054;-72
2022/10/02 10:27:57;;;;;;;12.65;1.80;;;18.20;78.10;;;;;;5114382;28;20016;-72
2022/10/02 10:30:38;;;;;;;11.23;1.73;;;18.10;76.80;;;;;;5114201;28;20103;-72
2022/10/02 10:33:36;;;;;;;4.60;1.58;;;18.10;77.00;;;;;;5114451;28;20103;-72
2022/10/02 10:39:51;;;;;;;10.43;1.67;;;18.20;75.80;;;;;;5114291;28;20043;-72
2022/10/02 10:42:35;;;;;;;11.75;1.63;;;18.10;74.10;;;;;;5096149;28;20368;-73
2022/10/02 10:45:25;;;;;;;8.38;1.35;;;18.00;74.60;;;;;;5114037;28;20084;-71
2022/10/02 10:48:13;;;;;;;9.15;1.90;;;18.00;73.70;;;;;;5113848;28;20040;-71
2022/10/02 10:50:53;;;;;;;7.30;1.75;;;18.10;73.60;;;;;;5114024;28;20020;-70
2022/10/02 10:53:42;;;;;;;6.35;1.30;;;18.20;73.00;;;;;;5114130;28;20042;-72
2022/10/02 10:56:18;;;;;;;8.38;1.67;;;18.30;71.80;;;;;;5104367;28;20040;-71
2022/10/02 10:59:09;;;;;;;8.95;1.38;;;18.40;72.80;;;;;;5113838;28;20028;-72
2022/10/02 11:01:53;;;;;;;7.07;1.40;;;18.40;72.50;;;;;;5113846;28;20024;-71
2022/10/02 11:05:00;;;;;;;6.03;1.40;;;18.40;71.40;;;;;;5113683;28;20056;-71
2022/10/02 11:07:33;;;;;;;8.07;1.70;;;18.40;71.80;;;;;;5092706;28;20043;-72
2022/10/02 11:10:14;;;;;;;10.85;1.48;;;18.40;72.40;;;;;;5113859;28;20027;-72
2022/10/02 11:12:49;;;;;;;7.78;1.33;;;18.50;72.40;;;;;;5113703;28;20031;-71
2022/10/02 11:15:39;;;;;;;8.90;1.90;;;18.50;71.60;;;;;;5113030;28;20023;-71
2022/10/02 11:18:43;;;;;;;7.68;1.75;;;18.50;70.10;;;;;;5113768;28;20032;-71
2022/10/02 11:21:35;;;;;;;7.97;1.50;;;18.50;71.00;;;;;;5113751;28;20038;-71
2022/10/02 11:24:18;;;;;;;5.18;1.40;;;18.40;72.00;;;;;;5113518;28;20039;-72
2022/10/02 11:26:58;;;;;;;4.55;1.42;;;18.40;72.00;;;;;;5113704;28;20035;-72
2022/10/02 11:29:43;;;;;;;7.07;1.55;;;18.40;70.70;;;;;;5095618;28;20035;-72
2022/10/02 11:32:40;;;;;;;8.68;1.80;;;18.30;70.30;;;;;;5113312;28;20042;-71
2022/10/02 11:35:18;;;;;;;7.15;1.65;;;18.20;71.00;;;;;;5113486;28;20074;-71
2022/10/02 11:37:59;;;;;;;7.13;2.33;;;18.10;71.40;;;;;;5113471;28;20056;-71
2022/10/02 11:40:43;;;;;;;8.95;1.83;;;18.10;72.00;;;;;;5113467;28;20030;-71
2022/10/02 11:43:21;;;;;;;7.10;1.25;;;18.00;72.30;;;;;;5113477;28;20020;-71
2022/10/02 11:46:06;;;;;;;6.38;1.60;;;18.00;72.90;;;;;;5113112;28;20032;-71
2022/10/02 11:48:59;;;;;;;7.32;2.13;;;18.00;73.40;;;;;;5113300;28;20016;-71
2022/10/02 11:51:45;;;;;;;8.57;1.20;;;18.00;73.80;;;;;;5113436;28;20344;-71
2022/10/02 11:54:26;;;;;;;7.72;1.52;;;18.00;73.80;;;;;;5113286;28;20103;-71
2022/10/02 11:57:05;;;;;;;5.60;1.40;;;18.00;72.90;;;;;;5113241;28;20017;-71
2022/10/02 12:00:09;;;;;;;6.55;1.30;;;17.90;73.00;;;;;;5113388;28;20024;-71
2022/10/02 12:02:46;;;;;;;6.20;1.75;;;18.00;72.70;;;;;;5113150;28;20044;-71
2022/10/02 12:05:37;;;;;;;5.15;1.17;;;18.00;73.00;;;;;;5113218;28;20021;-71
2022/10/02 12:08:42;;;;;;;10.38;1.50;;;18.10;72.60;;;;;;5113088;28;20024;-71
2022/10/02 12:11:22;;;;;;;6.65;1.63;;;18.10;72.40;;;;;;5111955;28;20047;-71
2022/10/02 12:14:05;;;;;;;4.60;1.58;;;18.00;72.20;;;;;;5113089;28;20027;-71
2022/10/02 12:17:03;;;;;;;7.47;1.50;;;18.10;72.30;;;;;;5113062;28;20048;-71
2022/10/02 12:28:59;;;;;;;5.05;1.60;;;18.30;71.40;;;;;;5116834;28;20074;-71
2022/10/02 12:31:56;;;;;;;9.68;1.90;;;18.30;70.40;;;;;;5116597;28;20028;-71
2022/10/02 12:34:47;;;;;;;7.28;1.48;;;18.40;69.70;;;;;;5116737;28;20016;-71
2022/10/02 12:37:35;;;;;;;6.40;1.38;;;18.40;70.20;;;;;;5116565;28;20102;-71
2022/10/02 12:40:19;;;;;;;9.85;1.90;;;18.50;69.40;;;;;;5116478;28;20020;-71
2022/10/02 12:43:17;;;;;;;5.95;1.25;;;18.60;68.00;;;;;;5116440;28;20038;-71
2022/10/02 12:46:04;;;;;;;6.85;1.48;;;18.60;68.70;;;;;;5112921;28;20058;-71
2022/10/02 12:48:57;;;;;;;9.43;1.88;;;18.70;68.80;;;;;;5116318;28;20020;-71
2022/10/02 12:51:45;;;;;;;8.32;1.52;;;18.90;69.30;;;;;;5092689;28;20052;-71
2022/10/02 12:54:32;;;;;;;7.68;1.88;;;19.00;68.40;;;;;;5116240;28;20376;-71
2022/10/02 13:00:18;;;;;;;5.90;1.30;;;19.20;66.70;;;;;;5116144;28;20038;-71
2022/10/02 13:03:13;;;;;;;7.07;1.70;;;19.40;67.30;;;;;;5115996;28;20114;-71
2022/10/02 13:05:39;;;;;;;6.47;1.30;;;19.50;67.40;;;;;;5116043;28;20039;-71
2022/10/02 13:08:24;;;;;;;6.95;1.20;;;19.50;66.60;;;;;;5115877;28;20016;-71
2022/10/02 13:10:59;;;;;;;5.55;1.40;;;19.50;65.40;;;;;;5116044;28;20080;-71
2022/10/02 13:13:54;;;;;;;5.60;1.20;;;19.40;66.00;;;;;;5115797;28;20023;-71
2022/10/02 13:16:47;;;;;;;5.85;1.38;;;19.40;65.40;;;;;;5115800;28;20031;-71
2022/10/02 13:19:45;;;;;;;5.35;1.45;;;19.30;64.30;;;;;;5115715;28;20044;-71
2022/10/02 13:22:19;;;;;;;6.38;1.15;;;19.10;63.40;;;;;;5061332;28;20053;-71
2022/10/02 13:25:22;;;;;;;6.22;1.23;;;19.00;63.20;;;;;;5115622;28;20031;-72
2022/10/02 13:27:58;;;;;;;;;;;19.00;63.50;;;;;;5093207;28;20052;-72
2022/10/02 13:30:27;;;;;;;8.07;1.10;;;19.00;63.10;;;;;;5115412;28;19904;-72
2022/10/02 13:33:09;;;;;;;4.15;1.10;;;19.10;64.50;;;;;;5115419;28;20027;-72
2022/10/02 13:36:01;;;;;;;2.83;0.88;;;19.30;64.10;;;;;;5115444;28;20020;-72
2022/10/02 13:39:05;;;;;;;5.13;1.20;;;19.50;63.70;;;;;;5111751;28;20113;-72
2022/10/02 13:41:42;;;;;;;6.72;1.35;;;19.70;62.90;;;;;;5115229;28;20038;-72
2022/10/02 13:44:22;;;;;;;6.60;1.00;;;19.80;61.50;;;;;;5115146;28;20028;-72
2022/10/02 13:47:23;;;;;;;7.60;0.93;;;20.00;62.00;;;;;;5115019;28;20040;-72
2022/10/02 13:50:15;;;;;;;5.80;1.30;;;20.20;60.00;;;;;;5106746;28;20044;-72
2022/10/02 13:53:18;;;;;;;7.30;1.20;;;20.30;60.80;;;;;;5115120;28;20044;-72
2022/10/02 13:55:46;;;;;;;;;;;20.20;60.10;;;;;;5115405;28;20035;-72
2022/10/02 13:58:26;;;;;;;10.63;1.27;;;20.10;60.20;;;;;;5114937;28;19911;-72
2022/10/02 14:01:20;;;;;;;4.28;1.00;;;19.90;61.50;;;;;;5114911;28;20032;-72
2022/10/02 14:03:45;;;;;;;3.10;0.70;;;19.80;59.30;;;;;;5114942;28;20020;-72
2022/10/02 14:06:35;;;;;;;4.80;1.15;;;19.60;60.20;;;;;;5114716;28;20134;-72
2022/10/02 14:09:06;;;;;;;6.75;0.93;;;19.50;59.10;;;;;;5114737;28;20028;-72
2022/10/02 14:11:31;;;;;;;4.45;1.00;;;19.50;60.20;;;;;;5114729;28;20024;-72
2022/10/02 14:14:31;;;;;;;4.72;1.48;;;20.60;60.30;;;;;;5114632;28;20060;-72